createdAt,value
2019-04-27T00:00:14.271Z,0.00
2019-04-27T00:01:13.893Z,0.00
2019-04-27T00:02:13.791Z,0.00
2019-04-27T00:03:13.713Z,0.00
2019-04-27T00:04:16.255Z,0.00
2019-04-27T00:05:14.311Z,0.00
2019-04-27T00:06:13.610Z,0.00
2019-04-27T00:07:16.994Z,0.00
2019-04-27T00:08:13.953Z,0.00
2019-04-27T00:09:14.471Z,0.00
2019-04-27T00:10:13.744Z,0.00
2019-04-27T00:11:13.706Z,0.00
2019-04-27T00:12:16.524Z,0.00
2019-04-27T00:13:15.037Z,0.00
2019-04-27T00:14:15.060Z,0.00
2019-04-27T00:15:13.177Z,0.00
2019-04-27T00:16:13.456Z,0.00
2019-04-27T00:17:12.968Z,0.00
2019-04-27T00:18:13.997Z,0.00
2019-04-27T00:19:13.183Z,0.00
2019-04-27T00:20:13.124Z,0.00
2019-04-27T00:21:13.464Z,0.00
2019-04-27T00:22:12.951Z,0.00
2019-04-27T00:23:13.274Z,0.00
2019-04-27T00:24:13.530Z,0.00
2019-04-27T00:25:13.117Z,0.00
2019-04-27T00:26:13.098Z,0.00
2019-04-27T00:27:13.390Z,0.00
2019-04-27T00:28:12.867Z,0.00
2019-04-27T00:29:11.644Z,0.00
2019-04-27T00:30:11.558Z,0.00
2019-04-27T00:31:13.147Z,0.00
2019-04-27T00:32:12.915Z,0.00
2019-04-27T00:33:11.319Z,0.00
2019-04-27T00:34:11.238Z,0.00
2019-04-27T00:35:11.159Z,0.00
2019-04-27T00:36:11.080Z,0.00
2019-04-27T00:37:10.998Z,0.00
2019-04-27T00:38:10.920Z,0.00
2019-04-27T00:39:10.839Z,0.00
2019-04-27T00:40:10.761Z,0.00
2019-04-27T00:41:10.678Z,0.00
2019-04-27T00:42:10.597Z,0.00
2019-04-27T00:43:10.520Z,0.00
2019-04-27T00:44:10.438Z,0.00
2019-04-27T00:45:10.358Z,0.00
2019-04-27T00:46:10.278Z,0.00
2019-04-27T00:47:10.197Z,0.00
2019-04-27T00:48:10.116Z,0.00
2019-04-27T00:49:10.038Z,0.00
2019-04-27T00:50:09.955Z,0.00
2019-04-27T00:51:09.877Z,0.00
2019-04-27T00:52:09.796Z,0.00
2019-04-27T00:53:09.715Z,0.00
2019-04-27T00:54:09.634Z,0.00
2019-04-27T00:55:09.555Z,0.00
2019-04-27T00:56:09.474Z,0.00
2019-04-27T00:57:09.393Z,0.00
2019-04-27T00:58:09.312Z,0.00
2019-04-27T00:59:09.239Z,0.00
2019-04-27T01:00:09.151Z,0.00
2019-04-27T01:01:09.070Z,0.00
2019-04-27T01:02:08.991Z,0.00
2019-04-27T01:03:08.913Z,0.00
2019-04-27T01:04:08.828Z,0.00
2019-04-27T01:05:08.748Z,0.00
2019-04-27T01:06:08.666Z,0.00
2019-04-27T01:07:08.586Z,0.00
2019-04-27T01:08:08.504Z,0.00
2019-04-27T01:09:08.433Z,0.00
2019-04-27T01:10:08.342Z,0.00
2019-04-27T01:11:08.266Z,0.00
2019-04-27T01:12:08.183Z,0.00
2019-04-27T01:13:08.102Z,0.00
2019-04-27T01:14:08.022Z,0.00
2019-04-27T01:15:07.941Z,0.00
2019-04-27T01:16:08.619Z,0.00
2019-04-27T01:17:08.885Z,0.00
2019-04-27T01:18:14.455Z,0.00
2019-04-27T01:19:08.479Z,0.00
2019-04-27T01:20:08.666Z,0.00
2019-04-27T01:21:09.197Z,0.00
2019-04-27T01:22:08.738Z,0.00
2019-04-27T01:23:08.890Z,0.00
2019-04-27T01:24:08.901Z,0.00
2019-04-27T01:25:08.803Z,0.00
2019-04-27T01:26:07.052Z,0.00
2019-04-27T01:27:08.690Z,0.00
2019-04-27T01:28:06.891Z,0.00
2019-04-27T01:29:06.810Z,0.00
2019-04-27T01:30:06.730Z,0.00
2019-04-27T01:31:06.649Z,0.00
2019-04-27T01:32:06.569Z,0.00
2019-04-27T01:33:06.488Z,0.00
2019-04-27T01:34:06.407Z,0.00
2019-04-27T01:35:06.325Z,0.00
2019-04-27T01:36:06.244Z,0.00
2019-04-27T01:37:06.166Z,0.00
2019-04-27T01:38:06.083Z,0.00
2019-04-27T01:39:06.003Z,0.00
2019-04-27T01:40:05.921Z,0.00
2019-04-27T01:41:05.840Z,0.00
2019-04-27T01:42:05.760Z,0.00
2019-04-27T01:43:05.680Z,0.00
2019-04-27T01:44:05.648Z,0.00
2019-04-27T01:45:05.516Z,0.00
2019-04-27T01:46:05.436Z,0.00
2019-04-27T01:47:05.356Z,0.00
2019-04-27T01:48:05.274Z,0.00
2019-04-27T01:49:05.195Z,0.00
2019-04-27T01:50:05.118Z,0.00
2019-04-27T01:51:05.034Z,0.00
2019-04-27T01:52:04.952Z,0.00
2019-04-27T01:53:04.871Z,0.00
2019-04-27T01:54:04.791Z,0.00
2019-04-27T01:55:04.710Z,0.00
2019-04-27T01:56:04.630Z,0.00
2019-04-27T01:57:04.549Z,0.00
2019-04-27T01:58:04.471Z,0.00
2019-04-27T01:59:04.385Z,0.00
2019-04-27T02:00:04.304Z,0.00
2019-04-27T02:01:04.224Z,0.00
2019-04-27T02:02:04.144Z,0.00
2019-04-27T02:03:04.062Z,0.00
2019-04-27T02:04:03.981Z,0.00
2019-04-27T02:05:03.901Z,0.00
2019-04-27T02:06:03.821Z,0.00
2019-04-27T02:07:03.739Z,0.00
2019-04-27T02:08:03.658Z,0.00
2019-04-27T02:09:03.577Z,0.00
2019-04-27T02:10:03.497Z,0.00
2019-04-27T02:11:03.416Z,0.00
2019-04-27T02:12:03.334Z,0.00
2019-04-27T02:13:03.254Z,0.00
2019-04-27T02:14:03.173Z,0.00
2019-04-27T02:15:03.092Z,0.00
2019-04-27T02:16:03.011Z,0.00
2019-04-27T02:17:02.931Z,0.00
2019-04-27T02:18:02.850Z,0.00
2019-04-27T02:19:02.768Z,0.00
2019-04-27T02:20:02.690Z,0.00
2019-04-27T02:21:02.607Z,0.00
2019-04-27T02:22:02.532Z,0.00
2019-04-27T02:23:02.446Z,0.00
2019-04-27T02:24:02.363Z,0.00
2019-04-27T02:25:02.284Z,0.00
2019-04-27T02:26:02.203Z,0.00
2019-04-27T02:27:02.121Z,0.00
2019-04-27T02:28:02.040Z,0.00
2019-04-27T02:29:01.959Z,0.00
2019-04-27T02:30:01.886Z,0.00
2019-04-27T02:31:02.149Z,0.00
2019-04-27T02:32:03.017Z,0.00
2019-04-27T02:33:01.638Z,0.00
2019-04-27T02:34:01.556Z,0.00
2019-04-27T02:35:01.477Z,0.00
2019-04-27T02:36:01.410Z,0.00
2019-04-27T02:37:02.743Z,0.00
2019-04-27T02:38:01.232Z,0.00
2019-04-27T02:39:01.150Z,0.00
2019-04-27T02:40:01.070Z,0.00
2019-04-27T02:41:00.987Z,0.00
2019-04-27T02:42:00.907Z,0.00
2019-04-27T02:43:00.826Z,0.00
2019-04-27T02:44:01.821Z,0.00
2019-04-27T02:45:00.663Z,0.00
2019-04-27T02:46:00.645Z,0.00
2019-04-27T02:47:00.645Z,0.00
2019-04-27T02:48:00.419Z,0.00
2019-04-27T02:49:06.000Z,0.00
2019-04-27T02:50:00.735Z,0.00
2019-04-27T02:51:00.179Z,0.00
2019-04-27T02:52:00.095Z,0.00
2019-04-27T02:53:03.099Z,0.00
2019-04-27T02:54:00.478Z,0.00
2019-04-27T02:54:59.852Z,0.00
2019-04-27T02:55:59.772Z,0.00
2019-04-27T02:56:59.690Z,0.00
2019-04-27T02:57:59.926Z,0.00
2019-04-27T02:58:59.758Z,0.00
2019-04-27T03:00:00.140Z,0.00
2019-04-27T03:00:59.442Z,0.00
2019-04-27T03:02:00.809Z,0.00
2019-04-27T03:03:01.970Z,0.00
2019-04-27T03:04:00.355Z,0.00
2019-04-27T03:05:00.637Z,0.00
2019-04-27T03:05:59.834Z,0.00
2019-04-27T03:07:00.318Z,0.00
2019-04-27T03:07:59.647Z,0.00
2019-04-27T03:09:00.390Z,0.00
2019-04-27T03:09:59.682Z,0.00
2019-04-27T03:11:00.978Z,0.00
2019-04-27T03:11:59.492Z,0.00
2019-04-27T03:13:00.065Z,0.00
2019-04-27T03:13:59.851Z,0.00
2019-04-27T03:14:59.685Z,0.00
2019-04-27T03:16:00.442Z,0.00
2019-04-27T03:17:00.173Z,0.00
2019-04-27T03:17:59.707Z,0.00
2019-04-27T03:19:11.415Z,0.00
2019-04-27T03:19:59.736Z,0.00
2019-04-27T03:21:00.203Z,0.00
2019-04-27T03:21:59.307Z,0.00
2019-04-27T03:22:59.997Z,0.00
2019-04-27T03:23:57.496Z,0.00
2019-04-27T03:24:59.750Z,0.00
2019-04-27T03:25:57.331Z,0.00
2019-04-27T03:26:59.980Z,0.00
2019-04-27T03:27:57.169Z,0.00
2019-04-27T03:28:57.090Z,0.00
2019-04-27T03:29:59.554Z,0.00
2019-04-27T03:31:01.978Z,0.00
2019-04-27T03:31:56.874Z,0.00
2019-04-27T03:32:58.820Z,0.00
2019-04-27T03:34:03.198Z,0.00
2019-04-27T03:34:56.601Z,0.00
2019-04-27T03:35:56.519Z,0.00
2019-04-27T03:36:56.438Z,0.00
2019-04-27T03:37:56.367Z,0.00
2019-04-27T03:38:56.274Z,0.00
2019-04-27T03:39:56.196Z,0.00
2019-04-27T03:40:56.113Z,0.00
2019-04-27T03:41:56.031Z,4.00
2019-04-27T03:42:55.953Z,4.00
2019-04-27T03:43:55.867Z,4.00
2019-04-27T03:44:55.788Z,0.00
2019-04-27T03:45:55.706Z,4.00
2019-04-27T03:46:55.636Z,4.00
2019-04-27T03:47:55.542Z,8.00
2019-04-27T03:48:55.461Z,4.00
2019-04-27T03:49:55.395Z,8.00
2019-04-27T03:50:55.300Z,8.00
2019-04-27T03:51:55.217Z,8.00
2019-04-27T03:52:55.137Z,12.00
2019-04-27T03:53:57.247Z,12.00
2019-04-27T03:54:54.974Z,16.00
2019-04-27T03:55:54.897Z,16.00
2019-04-27T03:56:54.812Z,20.00
2019-04-27T03:57:54.729Z,24.00
2019-04-27T03:58:54.648Z,28.00
2019-04-27T03:59:54.572Z,32.00
2019-04-27T04:00:54.488Z,36.00
2019-04-27T04:01:54.406Z,40.00
2019-04-27T04:02:54.325Z,44.00
2019-04-27T04:03:54.241Z,52.00
2019-04-27T04:04:54.162Z,56.00
2019-04-27T04:05:54.080Z,64.00
2019-04-27T04:06:54.000Z,68.00
2019-04-27T04:07:53.920Z,72.00
2019-04-27T04:08:55.218Z,80.00
2019-04-27T04:09:53.755Z,84.00
2019-04-27T04:10:53.674Z,92.00
2019-04-27T04:11:53.592Z,104.00
2019-04-27T04:12:56.005Z,120.00
2019-04-27T04:13:53.428Z,140.00
2019-04-27T04:14:53.360Z,156.00
2019-04-27T04:15:53.266Z,152.00
2019-04-27T04:16:53.185Z,160.00
2019-04-27T04:17:53.104Z,168.00
2019-04-27T04:18:53.024Z,180.00
2019-04-27T04:19:57.470Z,192.00
2019-04-27T04:20:52.862Z,200.00
2019-04-27T04:21:52.780Z,212.00
2019-04-27T04:22:52.699Z,224.00
2019-04-27T04:23:52.618Z,240.00
2019-04-27T04:24:52.536Z,252.00
2019-04-27T04:25:52.457Z,272.00
2019-04-27T04:26:52.383Z,296.00
2019-04-27T04:27:52.292Z,324.00
2019-04-27T04:28:52.213Z,352.00
2019-04-27T04:29:52.131Z,376.00
2019-04-27T04:30:52.051Z,392.00
2019-04-27T04:31:51.970Z,428.00
2019-04-27T04:32:52.118Z,460.00
2019-04-27T04:33:51.806Z,492.00
2019-04-27T04:34:51.735Z,532.00
2019-04-27T04:35:51.657Z,556.00
2019-04-27T04:36:51.565Z,564.00
2019-04-27T04:37:52.945Z,604.00
2019-04-27T04:38:51.400Z,632.00
2019-04-27T04:39:53.523Z,660.00
2019-04-27T04:40:51.242Z,672.00
2019-04-27T04:41:51.275Z,684.00
2019-04-27T04:42:51.077Z,696.00
2019-04-27T04:43:50.993Z,716.00
2019-04-27T04:44:50.921Z,724.00
2019-04-27T04:45:50.832Z,728.00
2019-04-27T04:46:50.765Z,736.00
2019-04-27T04:47:50.675Z,740.00
2019-04-27T04:48:50.590Z,764.00
2019-04-27T04:50:07.057Z,780.00
2019-04-27T04:50:50.439Z,792.00
2019-04-27T04:51:50.546Z,792.00
2019-04-27T04:52:50.269Z,788.00
2019-04-27T04:53:51.909Z,788.00
2019-04-27T04:54:50.106Z,788.00
2019-04-27T04:55:50.023Z,796.00
2019-04-27T04:56:49.942Z,804.00
2019-04-27T04:57:49.862Z,808.00
2019-04-27T04:58:49.849Z,816.00
2019-04-27T04:59:51.404Z,824.00
2019-04-27T05:00:50.343Z,836.00
2019-04-27T05:01:50.049Z,836.00
2019-04-27T05:02:49.456Z,848.00
2019-04-27T05:03:49.374Z,856.00
2019-04-27T05:04:49.307Z,864.00
2019-04-27T05:05:50.109Z,876.00
2019-04-27T05:06:50.711Z,888.00
2019-04-27T05:07:49.049Z,892.00
2019-04-27T05:08:49.451Z,904.00
2019-04-27T05:09:48.889Z,912.00
2019-04-27T05:10:49.684Z,920.00
2019-04-27T05:11:48.832Z,928.00
2019-04-27T05:12:50.419Z,940.00
2019-04-27T05:13:49.441Z,960.00
2019-04-27T05:14:49.012Z,984.00
2019-04-27T05:15:48.813Z,1020.00
2019-04-27T05:16:48.896Z,1056.00
2019-04-27T05:17:48.409Z,1088.00
2019-04-27T05:18:49.522Z,1100.00
2019-04-27T05:19:49.104Z,1108.00
2019-04-27T05:20:48.647Z,1124.00
2019-04-27T05:21:49.152Z,1136.00
2019-04-27T05:22:49.137Z,1148.00
2019-04-27T05:23:48.721Z,1156.00
2019-04-27T05:24:49.249Z,1168.00
2019-04-27T05:25:49.209Z,1184.00
2019-04-27T05:26:48.704Z,1192.00
2019-04-27T05:27:47.427Z,1208.00
2019-04-27T05:28:49.182Z,1224.00
2019-04-27T05:29:48.848Z,1232.00
2019-04-27T05:30:48.707Z,1248.00
2019-04-27T05:31:48.803Z,1264.00
2019-04-27T05:32:47.028Z,1284.00
2019-04-27T05:33:46.944Z,1304.00
2019-04-27T05:34:46.863Z,1316.00
2019-04-27T05:35:48.950Z,1336.00
2019-04-27T05:36:48.993Z,1352.00
2019-04-27T05:37:46.622Z,1368.00
2019-04-27T05:38:46.877Z,1388.00
2019-04-27T05:39:46.457Z,1416.00
2019-04-27T05:40:46.378Z,1416.00
2019-04-27T05:41:46.297Z,1428.00
2019-04-27T05:42:50.517Z,1444.00
2019-04-27T05:43:46.135Z,1460.00
2019-04-27T05:44:46.680Z,1480.00
2019-04-27T05:45:45.977Z,1492.00
2019-04-27T05:46:45.896Z,1504.00
2019-04-27T05:47:48.516Z,1504.00
2019-04-27T05:48:45.732Z,1508.00
2019-04-27T05:49:45.652Z,1516.00
2019-04-27T05:50:46.039Z,1520.00
2019-04-27T05:51:47.918Z,1540.00
2019-04-27T05:52:45.411Z,1552.00
2019-04-27T05:53:45.329Z,1576.00
2019-04-27T05:54:45.250Z,1592.00
2019-04-27T05:55:45.170Z,1604.00
2019-04-27T05:56:45.098Z,1620.00
2019-04-27T05:57:45.007Z,1632.00
2019-04-27T05:58:44.928Z,1652.00
2019-04-27T05:59:44.847Z,1676.00
2019-04-27T06:00:44.765Z,1708.00
2019-04-27T06:01:44.685Z,1736.00
2019-04-27T06:02:44.606Z,1760.00
2019-04-27T06:03:44.526Z,1796.00
2019-04-27T06:04:44.444Z,1844.00
2019-04-27T06:05:44.367Z,1876.00
2019-04-27T06:06:44.285Z,1900.00
2019-04-27T06:07:44.203Z,1928.00
2019-04-27T06:08:44.123Z,1952.00
2019-04-27T06:09:44.043Z,1984.00
2019-04-27T06:10:43.968Z,2016.00
2019-04-27T06:11:43.883Z,2060.00
2019-04-27T06:12:43.802Z,2128.00
2019-04-27T06:13:44.073Z,2188.00
2019-04-27T06:14:43.643Z,2168.00
2019-04-27T06:15:43.563Z,2152.00
2019-04-27T06:16:43.482Z,2172.00
2019-04-27T06:17:43.402Z,2216.00
2019-04-27T06:18:43.674Z,2292.00
2019-04-27T06:19:43.939Z,2320.00
2019-04-27T06:20:53.292Z,2548.00
2019-04-27T06:21:43.083Z,2940.00
2019-04-27T06:22:43.004Z,2988.00
2019-04-27T06:23:42.974Z,2392.00
2019-04-27T06:24:42.844Z,2356.00
2019-04-27T06:25:42.765Z,2392.00
2019-04-27T06:26:42.687Z,2364.00
2019-04-27T06:27:42.606Z,2288.00
2019-04-27T06:28:42.525Z,2432.00
2019-04-27T06:29:42.449Z,2452.00
2019-04-27T06:30:42.366Z,2480.00
2019-04-27T06:31:42.286Z,2448.00
2019-04-27T06:32:42.207Z,2496.00
2019-04-27T06:33:42.127Z,2504.00
2019-04-27T06:34:42.050Z,2504.00
2019-04-27T06:35:41.969Z,2492.00
2019-04-27T06:36:41.890Z,2516.00
2019-04-27T06:37:41.810Z,2456.00
2019-04-27T06:38:41.732Z,2528.00
2019-04-27T06:39:41.654Z,2548.00
2019-04-27T06:40:41.574Z,2552.00
2019-04-27T06:41:41.496Z,2532.00
2019-04-27T06:42:41.415Z,2468.00
2019-04-27T06:43:41.341Z,2408.00
2019-04-27T06:44:41.261Z,2428.00
2019-04-27T06:45:41.179Z,2440.00
2019-04-27T06:46:41.100Z,2416.00
2019-04-27T06:47:41.479Z,2424.00
2019-04-27T06:48:40.940Z,2468.00
2019-04-27T06:49:40.860Z,2548.00
2019-04-27T06:50:40.783Z,2628.00
2019-04-27T06:51:40.701Z,2540.00
2019-04-27T06:52:40.623Z,2500.00
2019-04-27T06:53:40.544Z,2528.00
2019-04-27T06:55:40.385Z,2580.00
2019-04-27T06:56:40.306Z,2640.00
2019-04-27T06:57:41.238Z,2664.00
2019-04-27T06:58:40.743Z,2688.00
2019-04-27T06:59:40.108Z,2868.00
2019-04-27T07:00:39.993Z,2952.00
2019-04-27T07:01:39.916Z,3008.00
2019-04-27T07:02:43.471Z,3192.00
2019-04-27T07:03:39.760Z,3424.00
2019-04-27T07:04:42.303Z,3640.00
2019-04-27T07:05:39.606Z,3704.00
2019-04-27T07:06:52.842Z,3936.00
2019-04-27T07:07:39.630Z,4048.00
2019-04-27T07:08:40.128Z,4176.00
2019-04-27T07:12:04.937Z,5048.00
2019-04-27T07:13:07.480Z,5276.00
2019-04-27T07:14:04.782Z,5008.00
2019-04-27T07:15:04.731Z,5272.00
2019-04-27T07:16:04.626Z,5444.00
2019-04-27T07:17:04.550Z,5724.00
2019-04-27T07:18:04.474Z,6128.00
2019-04-27T07:19:04.397Z,6268.00
2019-04-27T07:20:04.323Z,6644.00
2019-04-27T07:21:16.178Z,7368.00
2019-04-27T07:22:04.169Z,7732.00
2019-04-27T07:23:04.091Z,8016.00
2019-04-27T07:24:04.016Z,7800.00
2019-04-27T07:25:03.941Z,7380.00
2019-04-27T07:26:03.868Z,8040.00
2019-04-27T07:27:03.788Z,7836.00
2019-04-27T07:28:03.713Z,7664.00
2019-04-27T07:29:03.642Z,7588.00
2019-04-27T07:30:03.565Z,7304.00
2019-04-27T07:31:03.485Z,7036.00
2019-04-27T07:32:03.413Z,6532.00
2019-04-27T07:33:03.336Z,6252.00
2019-04-27T07:34:03.261Z,6136.00
2019-04-27T07:35:03.186Z,6324.00
2019-04-27T07:36:03.111Z,6612.00
2019-04-27T07:37:03.036Z,6780.00
2019-04-27T07:38:02.961Z,7072.00
2019-04-27T07:39:02.889Z,7004.00
2019-04-27T07:40:02.810Z,7084.00
2019-04-27T07:41:02.738Z,7052.00
2019-04-27T07:42:02.663Z,7228.00
2019-04-27T07:43:02.589Z,7172.00
2019-04-27T07:44:02.514Z,7128.00
2019-04-27T07:45:02.438Z,7244.00
2019-04-27T07:46:02.364Z,7284.00
2019-04-27T07:47:02.286Z,7204.00
2019-04-27T07:48:02.212Z,7128.00
2019-04-27T07:49:02.140Z,7360.00
2019-04-27T07:50:02.081Z,7540.00
2019-04-27T07:51:01.988Z,7428.00
2019-04-27T07:52:01.913Z,7024.00
2019-04-27T07:53:01.840Z,6900.00
2019-04-27T07:54:01.765Z,7012.00
2019-04-27T07:55:01.689Z,7392.00
2019-04-27T07:56:01.615Z,7380.00
2019-04-27T07:57:01.538Z,7532.00
2019-04-27T07:58:01.466Z,7564.00
2019-04-27T07:59:01.389Z,7428.00
2019-04-27T08:00:01.315Z,6952.00
2019-04-27T08:01:01.241Z,6536.00
2019-04-27T08:02:01.172Z,6620.00
2019-04-27T08:03:01.093Z,6872.00
2019-04-27T08:04:01.016Z,7272.00
2019-04-27T08:05:00.944Z,7644.00
2019-04-27T08:06:00.867Z,7948.00
2019-04-27T08:07:00.791Z,8484.00
2019-04-27T08:08:00.723Z,9016.00
2019-04-27T08:09:00.644Z,8944.00
2019-04-27T08:10:01.554Z,8300.00
2019-04-27T08:11:00.494Z,8112.00
2019-04-27T08:12:00.418Z,8180.00
2019-04-27T08:13:00.346Z,8052.00
2019-04-27T08:14:00.270Z,8808.00
2019-04-27T08:15:00.220Z,9480.00
2019-04-27T08:16:00.122Z,9912.00
2019-04-27T08:17:00.046Z,10148.00
2019-04-27T08:17:59.972Z,10404.00
2019-04-27T08:19:00.131Z,10828.00
2019-04-27T08:19:59.822Z,10720.00
2019-04-27T08:20:59.750Z,11280.00
2019-04-27T08:22:01.541Z,10700.00
2019-04-27T08:23:01.321Z,9224.00
2019-04-27T08:23:59.527Z,8744.00
2019-04-27T08:24:59.642Z,7744.00
2019-04-27T08:25:59.379Z,6712.00
2019-04-27T08:26:59.473Z,6584.00
2019-04-27T08:28:00.288Z,8636.00
2019-04-27T08:28:59.155Z,9452.00
2019-04-27T08:29:59.084Z,10348.00
2019-04-27T08:31:00.384Z,11108.00
2019-04-27T08:31:58.935Z,10120.00
2019-04-27T08:32:59.350Z,10116.00
2019-04-27T08:34:00.091Z,9008.00
2019-04-27T08:34:59.473Z,8148.00
2019-04-27T08:35:59.140Z,7348.00
2019-04-27T08:37:00.727Z,6472.00
2019-04-27T08:37:59.393Z,5864.00
2019-04-27T08:38:58.891Z,5700.00
2019-04-27T08:39:59.224Z,5740.00
2019-04-27T08:40:59.214Z,5664.00
2019-04-27T08:41:59.479Z,5904.00
2019-04-27T08:42:59.219Z,5804.00
2019-04-27T08:43:58.702Z,5832.00
2019-04-27T08:44:59.442Z,6020.00
2019-04-27T08:45:58.907Z,6292.00
2019-04-27T08:46:59.507Z,7016.00
2019-04-27T08:47:59.501Z,8132.00
2019-04-27T08:48:58.677Z,9312.00
2019-04-27T08:49:59.097Z,9648.00
2019-04-27T08:50:59.234Z,8616.00
2019-04-27T08:52:01.367Z,8040.00
2019-04-27T08:52:57.379Z,11232.00
2019-04-27T08:53:59.003Z,11208.00
2019-04-27T08:54:57.231Z,10984.00
2019-04-27T08:55:59.055Z,9972.00
2019-04-27T08:56:57.082Z,7748.00
2019-04-27T08:57:58.572Z,5628.00
2019-04-27T08:58:56.932Z,5504.00
2019-04-27T08:59:56.857Z,5816.00
2019-04-27T09:00:56.785Z,5264.00
2019-04-27T09:01:58.595Z,4404.00
2019-04-27T09:02:56.633Z,4964.00
2019-04-27T09:03:56.559Z,4724.00
2019-04-27T09:04:56.484Z,2764.00
2019-04-27T09:05:56.412Z,3052.00
2019-04-27T09:06:56.395Z,5248.00
2019-04-27T09:07:56.262Z,7188.00
2019-04-27T09:08:56.186Z,8488.00
2019-04-27T09:09:56.112Z,6808.00
2019-04-27T09:10:56.042Z,5840.00
2019-04-27T09:11:55.963Z,5780.00
2019-04-27T09:12:55.887Z,7276.00
2019-04-27T09:13:55.812Z,4912.00
2019-04-27T09:14:55.739Z,3356.00
2019-04-27T09:15:55.662Z,4092.00
2019-04-27T09:17:00.279Z,4600.00
2019-04-27T09:17:55.513Z,3712.00
2019-04-27T09:18:55.438Z,2384.00
2019-04-27T09:19:55.363Z,2624.00
2019-04-27T09:20:55.287Z,2692.00
2019-04-27T09:21:55.215Z,2044.00
2019-04-27T09:22:55.136Z,2008.00
2019-04-27T09:23:55.061Z,2556.00
2019-04-27T09:24:54.986Z,3212.00
2019-04-27T09:25:54.911Z,3392.00
2019-04-27T09:26:54.835Z,3900.00
2019-04-27T09:27:54.759Z,6860.00
2019-04-27T09:28:54.684Z,7144.00
2019-04-27T09:29:54.609Z,6840.00
2019-04-27T09:31:37.017Z,8076.00
2019-04-27T09:32:40.791Z,8664.00
2019-04-27T09:33:36.869Z,8652.00
2019-04-27T09:34:36.789Z,7464.00
2019-04-27T09:35:36.713Z,6840.00
2019-04-27T09:36:37.536Z,8200.00
2019-04-27T09:37:36.706Z,10020.00
2019-04-27T09:38:36.485Z,10152.00
2019-04-27T09:39:36.411Z,10148.00
2019-04-27T09:40:36.335Z,9140.00
2019-04-27T09:41:36.664Z,9596.00
2019-04-27T09:42:38.293Z,10188.00
2019-04-27T09:43:36.751Z,9380.00
2019-04-27T09:44:37.111Z,8836.00
2019-04-27T09:45:37.193Z,8580.00
2019-04-27T09:46:36.413Z,8796.00
2019-04-27T09:47:36.859Z,9612.00
2019-04-27T09:48:36.206Z,10000.00
2019-04-27T09:49:36.634Z,10300.00
2019-04-27T09:50:36.066Z,10156.00
2019-04-27T09:51:36.331Z,10032.00
2019-04-27T09:52:35.836Z,10196.00
2019-04-27T09:53:36.405Z,7784.00
2019-04-27T09:54:36.580Z,9584.00
2019-04-27T09:55:36.877Z,9920.00
2019-04-27T09:56:36.379Z,10164.00
2019-04-27T09:57:36.474Z,8796.00
2019-04-27T09:58:36.637Z,8208.00
2019-04-27T09:59:34.901Z,9336.00
2019-04-27T10:00:36.445Z,8840.00
2019-04-27T10:01:36.110Z,8584.00
2019-04-27T10:02:36.501Z,8700.00
2019-04-27T10:03:36.034Z,10092.00
2019-04-27T10:04:35.579Z,10560.00
2019-04-27T10:05:34.451Z,10648.00
2019-04-27T10:06:36.231Z,8588.00
2019-04-27T10:07:35.848Z,9720.00
2019-04-27T10:08:34.225Z,8008.00
2019-04-27T10:09:34.150Z,8240.00
2019-04-27T10:10:34.074Z,10232.00
2019-04-27T10:11:35.495Z,11400.00
2019-04-27T10:12:34.459Z,12376.00
2019-04-27T10:13:33.850Z,12224.00
2019-04-27T10:14:33.774Z,12084.00
2019-04-27T10:15:35.541Z,12024.00
2019-04-27T10:16:33.625Z,12028.00
2019-04-27T10:17:33.552Z,12144.00
2019-04-27T10:18:33.479Z,12280.00
2019-04-27T10:19:33.401Z,11360.00
2019-04-27T10:20:38.301Z,10980.00
2019-04-27T10:21:33.252Z,9032.00
2019-04-27T10:22:41.241Z,8316.00
2019-04-27T10:23:33.102Z,6960.00
2019-04-27T10:24:33.027Z,9768.00
2019-04-27T10:25:32.952Z,11708.00
2019-04-27T10:26:32.876Z,11760.00
2019-04-27T10:27:32.803Z,9492.00
2019-04-27T10:28:32.728Z,12824.00
2019-04-27T10:29:32.653Z,13600.00
2019-04-27T10:30:32.579Z,11944.00
2019-04-27T10:31:32.505Z,10028.00
2019-04-27T10:32:32.431Z,8236.00
2019-04-27T10:33:32.354Z,8388.00
2019-04-27T10:34:32.280Z,9836.00
2019-04-27T10:35:32.206Z,9700.00
2019-04-27T10:36:32.130Z,9000.00
2019-04-27T10:37:32.055Z,8876.00
2019-04-27T10:38:31.989Z,9288.00
2019-04-27T10:39:31.907Z,8980.00
2019-04-27T10:40:31.836Z,8436.00
2019-04-27T10:41:31.758Z,8516.00
2019-04-27T10:42:31.683Z,8304.00
2019-04-27T10:43:31.609Z,8060.00
2019-04-27T10:44:31.535Z,7740.00
2019-04-27T10:45:31.460Z,7552.00
2019-04-27T10:46:31.384Z,7424.00
2019-04-27T10:47:31.313Z,7520.00
2019-04-27T10:48:31.237Z,7660.00
2019-04-27T10:49:31.162Z,7804.00
2019-04-27T10:50:31.086Z,7776.00
2019-04-27T10:51:31.012Z,7456.00
2019-04-27T10:52:30.938Z,8556.00
2019-04-27T10:53:30.863Z,8552.00
2019-04-27T10:54:30.786Z,8260.00
2019-04-27T10:55:30.713Z,9768.00
2019-04-27T10:56:30.638Z,9944.00
2019-04-27T10:57:30.564Z,10140.00
2019-04-27T10:58:30.487Z,10340.00
2019-04-27T10:59:30.414Z,10612.00
2019-04-27T11:00:30.339Z,9940.00
2019-04-27T11:01:30.265Z,9260.00
2019-04-27T11:02:30.190Z,8492.00
2019-04-27T11:04:17.604Z,9924.00
2019-04-27T11:05:17.528Z,9496.00
2019-04-27T11:06:17.454Z,9932.00
2019-04-27T11:07:17.380Z,10404.00
2019-04-27T11:08:17.304Z,9540.00
2019-04-27T11:09:17.231Z,7868.00
2019-04-27T11:10:17.155Z,6532.00
2019-04-27T11:11:17.082Z,6460.00
2019-04-27T11:12:17.007Z,7072.00
2019-04-27T11:13:16.932Z,5056.00
2019-04-27T11:14:16.857Z,6132.00
2019-04-27T11:15:16.784Z,5524.00
2019-04-27T11:16:16.710Z,5128.00
2019-04-27T11:17:16.637Z,5924.00
2019-04-27T11:18:16.784Z,3824.00
2019-04-27T11:19:17.017Z,4548.00
2019-04-27T11:20:16.411Z,5232.00
2019-04-27T11:21:16.338Z,4672.00
2019-04-27T11:22:16.265Z,4788.00
2019-04-27T11:23:16.487Z,7484.00
2019-04-27T11:24:16.112Z,9364.00
2019-04-27T11:25:16.513Z,12416.00
2019-04-27T11:26:16.091Z,15656.00
2019-04-27T11:27:15.887Z,18080.00
2019-04-27T11:28:15.838Z,20128.00
2019-04-27T11:29:15.743Z,21888.00
2019-04-27T11:30:15.778Z,23392.00
2019-04-27T11:31:17.293Z,27136.00
2019-04-27T11:32:15.915Z,61440.00
2019-04-27T11:33:16.218Z,46400.00
2019-04-27T11:34:15.366Z,34016.00
2019-04-27T11:35:15.707Z,33504.00
2019-04-27T11:36:16.916Z,33696.00
2019-04-27T11:37:15.145Z,22240.00
2019-04-27T11:38:16.617Z,21856.00
2019-04-27T11:39:16.270Z,26272.00
2019-04-27T11:40:14.925Z,16128.00
2019-04-27T11:41:16.157Z,16448.00
2019-04-27T11:42:14.785Z,21312.00
2019-04-27T11:43:16.064Z,17056.00
2019-04-27T11:44:15.288Z,15708.00
2019-04-27T11:45:14.561Z,15116.00
2019-04-27T11:46:16.274Z,12276.00
2019-04-27T11:47:16.095Z,7308.00
2019-04-27T11:48:16.036Z,7672.00
2019-04-27T11:49:15.619Z,7224.00
2019-04-27T11:50:14.196Z,7032.00
2019-04-27T11:51:17.104Z,7564.00
2019-04-27T11:52:15.670Z,9912.00
2019-04-27T11:53:20.724Z,13576.00
2019-04-27T11:54:13.907Z,19648.00
2019-04-27T11:55:13.831Z,11324.00
2019-04-27T11:56:13.757Z,15788.00
2019-04-27T11:57:13.685Z,12556.00
2019-04-27T11:58:13.611Z,20608.00
2019-04-27T11:59:13.539Z,22496.00
2019-04-27T12:00:13.464Z,22080.00
2019-04-27T12:01:13.389Z,28416.00
2019-04-27T12:02:13.316Z,22528.00
2019-04-27T12:03:13.242Z,21664.00
2019-04-27T12:05:13.097Z,19168.00
2019-04-27T12:06:13.024Z,19040.00
2019-04-27T12:07:12.949Z,29504.00
2019-04-27T12:08:12.877Z,20800.00
2019-04-27T12:09:12.805Z,14748.00
2019-04-27T12:10:13.272Z,21152.00
2019-04-27T12:13:30.489Z,8308.00
2019-04-27T12:15:20.088Z,7412.00
2019-04-27T12:16:20.017Z,6176.00
2019-04-27T12:17:19.941Z,7180.00
2019-04-27T12:20:12.480Z,9424.00
2019-04-27T12:21:09.784Z,9944.00
2019-04-27T12:22:09.711Z,8684.00
2019-04-27T12:23:09.638Z,8168.00
2019-04-27T12:24:09.595Z,4784.00
2019-04-27T12:25:09.495Z,5200.00
2019-04-27T12:26:09.419Z,5140.00
2019-04-27T12:27:09.344Z,8564.00
2019-04-27T12:28:09.271Z,11900.00
2019-04-27T12:29:09.196Z,7868.00
2019-04-27T12:30:12.019Z,7716.00
2019-04-27T12:31:09.211Z,8252.00
2019-04-27T12:32:08.972Z,8540.00
2019-04-27T12:33:08.902Z,6284.00
2019-04-27T12:34:08.820Z,8564.00
2019-04-27T12:35:08.745Z,12248.00
2019-04-27T12:36:08.671Z,10572.00
2019-04-27T12:37:08.597Z,11948.00